createdAt,value
2023-02-04T00:01:47.482Z,1.08
2023-02-04T00:04:14.356Z,0.80
2023-02-04T00:06:40.670Z,2.45
2023-02-04T00:09:07.643Z,1.60
2023-02-04T00:11:33.707Z,2.08
2023-02-04T00:13:59.829Z,0.90
2023-02-04T00:16:25.983Z,1.27
2023-02-04T00:18:52.131Z,0.80
2023-02-04T00:21:18.200Z,1.17
2023-02-04T00:23:44.247Z,0.77
2023-02-04T00:26:10.298Z,0.85
2023-02-04T00:28:36.411Z,1.20
2023-02-04T00:31:02.496Z,1.33
2023-02-04T00:33:30.184Z,2.38
2023-02-04T00:35:56.246Z,1.00
2023-02-04T00:38:22.407Z,1.42
2023-02-04T00:40:48.459Z,1.92
2023-02-04T00:43:14.572Z,2.03
2023-02-04T00:45:40.689Z,0.68
2023-02-04T00:48:06.735Z,1.17
2023-02-04T00:50:34.301Z,1.30
2023-02-04T00:53:01.406Z,0.98
2023-02-04T00:55:27.728Z,1.08
2023-02-04T00:57:53.771Z,1.13
2023-02-04T01:00:20.082Z,0.70
2023-02-04T01:02:46.226Z,0.77
2023-02-04T01:05:12.481Z,0.90
2023-02-04T01:07:38.594Z,1.42
2023-02-04T01:10:05.219Z,0.88
2023-02-04T01:12:31.292Z,1.23
2023-02-04T01:14:57.715Z,0.68
2023-02-04T01:17:23.977Z,1.17
2023-02-04T01:19:50.049Z,0.43
2023-02-04T01:22:16.161Z,0.98
2023-02-04T01:24:42.275Z,1.15
2023-02-04T01:27:08.327Z,1.35
2023-02-04T01:29:34.388Z,1.10
2023-02-04T01:32:00.638Z,0.88
2023-02-04T01:34:26.801Z,0.77
2023-02-04T01:36:52.851Z,0.70
2023-02-04T01:39:18.905Z,1.10
2023-02-04T01:41:45.026Z,0.60
2023-02-04T01:44:11.065Z,0.73
2023-02-04T01:46:37.246Z,1.33
2023-02-04T01:49:05.483Z,0.80
2023-02-04T01:51:32.266Z,0.88
2023-02-04T01:54:01.315Z,1.05
2023-02-04T01:56:30.307Z,1.23
2023-02-04T01:58:57.492Z,0.77
2023-02-04T02:01:41.558Z,1.42
2023-02-04T02:04:09.165Z,1.08
2023-02-04T02:06:37.420Z,1.00
2023-02-04T02:09:04.054Z,1.30
2023-02-04T02:11:30.382Z,0.90
2023-02-04T02:13:56.469Z,0.77
2023-02-04T02:16:22.883Z,1.45
2023-02-04T02:18:49.067Z,1.15
2023-02-04T02:21:18.560Z,1.00
2023-02-04T02:23:52.739Z,1.45
2023-02-04T02:26:21.435Z,0.68
2023-02-04T02:28:49.175Z,1.05
2023-02-04T02:31:16.416Z,0.60
2023-02-04T02:33:42.578Z,0.95
2023-02-04T02:36:09.391Z,0.60
2023-02-04T02:38:35.906Z,0.70
2023-02-04T02:41:02.418Z,0.88
2023-02-04T02:43:29.619Z,0.98
2023-02-04T02:46:00.321Z,2.13
2023-02-04T02:48:26.640Z,0.85
2023-02-04T02:50:53.078Z,0.70
2023-02-04T02:53:20.344Z,0.57
2023-02-04T02:55:47.517Z,0.70
2023-02-04T02:58:31.881Z,0.80
2023-02-04T03:01:00.202Z,0.93
2023-02-04T03:03:29.672Z,0.82
2023-02-04T03:06:04.174Z,0.60
2023-02-04T03:08:30.284Z,0.70
2023-02-04T03:10:56.343Z,1.10
2023-02-04T03:13:22.935Z,0.80
2023-02-04T03:15:49.668Z,0.80
2023-02-04T03:18:18.868Z,0.65
2023-02-04T03:20:45.344Z,0.70
2023-02-04T03:23:12.001Z,0.60
2023-02-04T03:25:38.775Z,0.88
2023-02-04T03:28:05.209Z,0.60
2023-02-04T03:30:31.726Z,1.52
2023-02-04T03:32:58.208Z,0.63
2023-02-04T03:35:24.344Z,0.88
2023-02-04T03:37:50.469Z,0.60
2023-02-04T03:40:16.636Z,1.02
2023-02-04T03:42:42.674Z,0.60
2023-02-04T03:45:08.920Z,0.75
2023-02-04T03:47:34.990Z,0.65
2023-02-04T03:50:01.105Z,0.90
2023-02-04T03:52:27.314Z,0.52
2023-02-04T03:54:53.389Z,0.90
2023-02-04T03:57:19.477Z,1.27
2023-02-04T03:59:45.522Z,0.60
2023-02-04T04:02:11.592Z,1.00
2023-02-04T04:04:37.685Z,0.73
2023-02-04T04:07:03.798Z,0.60
2023-02-04T04:09:29.866Z,0.95
2023-02-04T04:11:55.902Z,0.65
2023-02-04T04:14:23.577Z,0.82
2023-02-04T04:16:49.641Z,1.38
2023-02-04T04:19:15.692Z,0.80
2023-02-04T04:21:41.759Z,0.73
2023-02-04T04:24:07.845Z,0.60
2023-02-04T04:26:35.521Z,0.65
2023-02-04T04:29:01.583Z,0.85
2023-02-04T04:31:27.726Z,0.80
2023-02-04T04:33:53.900Z,0.75
2023-02-04T04:36:20.029Z,0.47
2023-02-04T04:38:46.087Z,1.10
2023-02-04T04:41:12.135Z,0.60
2023-02-04T04:43:38.184Z,0.90
2023-02-04T04:46:04.266Z,0.45
2023-02-04T04:48:30.316Z,0.82
2023-02-04T04:50:57.636Z,0.95
2023-02-04T04:53:23.715Z,0.90
2023-02-04T04:55:49.787Z,0.57
2023-02-04T04:58:15.862Z,0.38
2023-02-04T05:00:42.021Z,0.40
2023-02-04T05:03:08.115Z,0.70
2023-02-04T05:05:39.199Z,1.10
2023-02-04T05:08:10.148Z,0.63
2023-02-04T05:10:36.316Z,0.95
2023-02-04T05:13:02.376Z,0.55
2023-02-04T05:15:28.424Z,0.47
2023-02-04T05:17:54.699Z,0.85
2023-02-04T05:20:20.743Z,0.68
2023-02-04T05:22:46.843Z,0.50
2023-02-04T05:25:16.023Z,0.40
2023-02-04T05:27:43.264Z,1.70
2023-02-04T05:30:11.156Z,0.52
2023-02-04T05:32:37.607Z,0.60
2023-02-04T05:35:05.639Z,0.70
2023-02-04T05:37:31.845Z,0.75
2023-02-04T05:39:57.960Z,0.50
2023-02-04T05:42:24.037Z,0.47
2023-02-04T05:44:50.141Z,0.30
2023-02-04T05:47:16.268Z,0.80
2023-02-04T05:49:42.339Z,0.70
2023-02-04T05:52:08.386Z,0.52
2023-02-04T05:54:34.435Z,0.30
2023-02-04T05:57:00.502Z,0.50
2023-02-04T05:59:26.715Z,0.38
2023-02-04T06:01:52.843Z,0.47
2023-02-04T06:04:18.979Z,0.40
2023-02-04T06:06:45.189Z,0.50
2023-02-04T06:09:12.036Z,0.38
2023-02-04T06:11:38.102Z,0.50
2023-02-04T06:14:04.355Z,0.40
2023-02-04T06:16:30.567Z,0.40
2023-02-04T06:18:56.640Z,0.30
2023-02-04T06:21:22.682Z,0.63
2023-02-04T06:23:48.726Z,0.30
2023-02-04T06:26:14.812Z,0.88
2023-02-04T06:28:40.875Z,0.38
2023-02-04T06:31:08.741Z,0.55
2023-02-04T06:33:36.464Z,0.35
2023-02-04T06:36:05.534Z,0.30
2023-02-04T06:38:31.616Z,0.32
2023-02-04T06:40:57.655Z,0.60
2023-02-04T06:43:24.867Z,0.47
2023-02-04T06:45:51.599Z,0.20
2023-02-04T06:48:18.613Z,0.40
2023-02-04T06:50:44.939Z,0.30
2023-02-04T06:53:11.053Z,0.28
2023-02-04T06:55:37.133Z,0.63
2023-02-04T06:58:03.247Z,0.30
2023-02-04T07:00:30.863Z,0.43
2023-02-04T07:02:58.013Z,0.30
2023-02-04T07:05:24.816Z,0.40
2023-02-04T07:07:51.295Z,0.63
2023-02-04T07:10:20.188Z,0.20
2023-02-04T07:12:46.655Z,0.30
2023-02-04T07:15:12.800Z,0.28
2023-02-04T07:17:38.847Z,0.30
2023-02-04T07:20:05.262Z,0.30
2023-02-04T07:22:31.302Z,0.50
2023-02-04T07:24:57.360Z,0.30
2023-02-04T07:27:23.436Z,0.22
2023-02-04T07:29:49.474Z,0.22
2023-02-04T07:32:15.575Z,0.28
2023-02-04T07:34:41.643Z,1.00
2023-02-04T07:37:07.812Z,0.50
2023-02-04T07:39:33.918Z,0.40
2023-02-04T07:41:59.982Z,0.40
2023-02-04T07:44:26.041Z,0.40
2023-02-04T07:46:52.088Z,0.50
2023-02-04T07:49:18.139Z,0.30
2023-02-04T07:51:44.215Z,0.30
2023-02-04T07:54:10.353Z,0.20
2023-02-04T07:56:36.423Z,0.43
2023-02-04T07:59:02.479Z,0.30
2023-02-04T08:01:28.650Z,0.40
2023-02-04T08:03:54.777Z,0.32
2023-02-04T08:06:21.047Z,0.30
2023-02-04T08:08:47.112Z,0.50
2023-02-04T08:11:13.196Z,0.35
2023-02-04T08:13:39.246Z,0.30
2023-02-04T08:16:05.643Z,0.40
2023-02-04T08:18:31.732Z,0.32
2023-02-04T08:20:58.756Z,0.30
2023-02-04T08:23:24.800Z,0.30
2023-02-04T08:25:50.909Z,0.38
2023-02-04T08:28:17.484Z,0.35
2023-02-04T08:30:44.170Z,0.52
2023-02-04T08:33:10.300Z,0.30
2023-02-04T08:35:36.347Z,0.40
2023-02-04T08:38:02.500Z,0.30
2023-02-04T08:40:28.720Z,0.40
2023-02-04T08:42:54.793Z,0.47
2023-02-04T08:45:20.949Z,0.55
2023-02-04T08:47:47.041Z,0.43
2023-02-04T08:50:13.226Z,0.50
2023-02-04T08:52:39.322Z,0.30
2023-02-04T08:55:05.794Z,0.32
2023-02-04T08:57:33.364Z,0.50
2023-02-04T08:59:59.433Z,0.70
2023-02-04T09:02:25.637Z,0.70
2023-02-04T09:04:51.762Z,0.30
2023-02-04T09:07:17.841Z,0.30
2023-02-04T09:09:43.943Z,0.50
2023-02-04T09:12:10.030Z,0.93
2023-02-04T09:14:36.088Z,0.52
2023-02-04T09:17:02.262Z,0.55
2023-02-04T09:19:28.309Z,1.67
2023-02-04T09:21:54.518Z,0.65
2023-02-04T09:24:22.937Z,0.45
2023-02-04T09:26:49.451Z,0.85
2023-02-04T09:29:15.627Z,0.50
2023-02-04T09:31:41.752Z,2.40
2023-02-04T09:34:07.865Z,0.77
2023-02-04T09:36:37.271Z,2.88
2023-02-04T09:39:09.382Z,2.03
2023-02-04T09:41:39.873Z,1.42
2023-02-04T09:44:13.349Z,2.75
2023-02-04T09:46:40.735Z,5.45
2023-02-04T09:49:09.653Z,2.95
2023-02-04T09:51:35.906Z,2.17
2023-02-04T09:54:28.558Z,2.72
2023-02-04T09:56:54.802Z,4.07
2023-02-04T09:59:22.683Z,7.68
2023-02-04T10:01:57.704Z,4.97
2023-02-04T10:04:23.944Z,4.18
2023-02-04T10:06:50.135Z,3.17
2023-02-04T10:09:16.776Z,3.05
2023-02-04T10:11:46.988Z,7.85
2023-02-04T10:14:16.820Z,4.15
2023-02-04T10:16:46.702Z,6.05
2023-02-04T10:19:15.198Z,4.47
2023-02-04T10:21:43.706Z,6.03
2023-02-04T10:24:16.624Z,6.07
2023-02-04T10:26:42.849Z,6.35
2023-02-04T10:29:17.614Z,7.43
2023-02-04T10:31:49.498Z,8.45
2023-02-04T10:34:33.345Z,6.68
2023-02-04T10:37:00.615Z,8.38
2023-02-04T10:39:28.293Z,7.68
2023-02-04T10:41:56.495Z,8.52
2023-02-04T10:44:35.322Z,5.10
2023-02-04T10:47:07.896Z,6.35
2023-02-04T10:49:34.064Z,7.30
2023-02-04T10:52:01.822Z,6.10
2023-02-04T10:54:36.401Z,8.00
2023-02-04T10:57:22.633Z,7.43
2023-02-04T10:59:54.466Z,6.85
2023-02-04T11:02:47.937Z,9.45
2023-02-04T11:05:20.186Z,10.20
2023-02-04T11:07:47.674Z,9.32
2023-02-04T11:10:16.305Z,8.18
2023-02-04T11:12:46.955Z,9.20
2023-02-04T11:15:38.002Z,8.40
2023-02-04T11:18:09.864Z,10.15
2023-02-04T11:20:39.290Z,13.15
2023-02-04T11:23:14.276Z,11.85
2023-02-04T11:25:40.458Z,9.18
2023-02-04T11:28:14.708Z,11.88
2023-02-04T11:30:40.956Z,10.07
2023-02-04T11:33:23.066Z,8.93
2023-02-04T11:36:03.904Z,9.98
2023-02-04T11:38:31.731Z,10.05
2023-02-04T11:40:58.679Z,7.80
2023-02-04T11:43:25.979Z,9.65
2023-02-04T11:46:15.943Z,13.43
2023-02-04T11:48:43.024Z,13.65
2023-02-04T11:51:16.470Z,10.13
2023-02-04T11:53:42.972Z,11.60
2023-02-04T11:56:17.646Z,12.88
2023-02-04T11:58:44.093Z,11.98
2023-02-04T12:01:21.840Z,11.05
2023-02-04T12:03:50.275Z,11.18
2023-02-04T12:06:25.090Z,11.30
2023-02-04T12:08:51.897Z,12.70
2023-02-04T12:11:29.756Z,8.57
2023-02-04T12:13:58.581Z,9.40
2023-02-04T12:16:25.544Z,15.07
2023-02-04T12:18:51.789Z,9.18
2023-02-04T12:21:18.844Z,11.57
2023-02-04T12:23:47.019Z,12.35
2023-02-04T12:26:13.245Z,11.02
2023-02-04T12:28:39.410Z,10.18
2023-02-04T12:31:05.595Z,10.73
2023-02-04T12:33:31.833Z,12.65
2023-02-04T12:35:57.910Z,10.05
2023-02-04T12:38:24.050Z,13.30
2023-02-04T12:40:50.167Z,10.25
2023-02-04T12:43:16.233Z,10.63
2023-02-04T12:45:45.673Z,13.00
2023-02-04T12:48:13.170Z,7.95
2023-02-04T12:50:39.267Z,10.75
2023-02-04T12:53:05.835Z,12.55
2023-02-04T12:55:32.447Z,9.93
2023-02-04T12:57:58.764Z,10.77
2023-02-04T13:00:26.675Z,8.45
2023-02-04T13:02:58.316Z,10.23
2023-02-04T13:05:25.908Z,8.75
2023-02-04T13:07:52.091Z,8.38
2023-02-04T13:10:19.416Z,9.20
2023-02-04T13:12:45.680Z,12.75
2023-02-04T13:15:11.775Z,9.45
2023-02-04T13:17:37.943Z,9.00
2023-02-04T13:20:04.631Z,8.85
2023-02-04T13:22:30.740Z,11.05
2023-02-04T13:24:56.795Z,8.82
2023-02-04T13:27:22.910Z,11.00
2023-02-04T13:29:48.989Z,8.90
2023-02-04T13:32:15.303Z,9.13
2023-02-04T13:34:41.338Z,11.48
2023-02-04T13:37:07.613Z,11.75
2023-02-04T13:39:33.693Z,8.40
2023-02-04T13:41:59.796Z,11.50
2023-02-04T13:44:25.853Z,9.82
2023-02-04T13:46:51.927Z,8.90
2023-02-04T13:49:18.212Z,8.43
2023-02-04T13:51:44.288Z,8.85
2023-02-04T13:54:10.373Z,9.18
2023-02-04T13:56:37.029Z,10.65
2023-02-04T13:59:03.190Z,9.35
2023-02-04T14:01:29.575Z,9.60
2023-02-04T14:03:55.629Z,9.15
2023-02-04T14:06:22.877Z,8.57
2023-02-04T14:08:48.946Z,10.70
2023-02-04T14:11:15.033Z,9.68
2023-02-04T14:13:41.078Z,9.75
2023-02-04T14:16:08.688Z,11.98
2023-02-04T14:18:35.097Z,8.98
2023-02-04T14:21:01.196Z,7.93
2023-02-04T14:23:27.291Z,7.55
2023-02-04T14:25:53.496Z,7.03
2023-02-04T14:28:19.618Z,8.60
2023-02-04T14:30:45.820Z,6.18
2023-02-04T14:33:12.344Z,8.15
2023-02-04T14:35:38.405Z,9.90
2023-02-04T14:38:05.212Z,10.88
2023-02-04T14:40:31.627Z,8.10
2023-02-04T14:42:57.825Z,8.82
2023-02-04T14:45:23.904Z,9.38
2023-02-04T14:47:51.964Z,10.00
2023-02-04T14:50:18.083Z,7.90
2023-02-04T14:52:44.179Z,12.93
2023-02-04T14:55:12.124Z,11.95
2023-02-04T14:57:38.360Z,9.18
2023-02-04T15:00:06.413Z,10.77
2023-02-04T15:02:32.637Z,8.75
2023-02-04T15:04:58.723Z,9.77
2023-02-04T15:07:24.803Z,8.52
2023-02-04T15:09:51.081Z,9.68
2023-02-04T15:12:17.123Z,11.45
2023-02-04T15:14:43.272Z,9.18
2023-02-04T15:17:09.397Z,10.40
2023-02-04T15:19:35.588Z,7.97
2023-02-04T15:22:01.697Z,9.02
2023-02-04T15:24:29.660Z,9.40
2023-02-04T15:26:55.820Z,10.15
2023-02-04T15:29:22.109Z,8.88
2023-02-04T15:31:49.852Z,9.02
2023-02-04T15:34:15.943Z,10.45
2023-02-04T15:36:42.040Z,10.60
2023-02-04T15:39:08.147Z,8.63
2023-02-04T15:41:34.204Z,9.18
2023-02-04T15:44:00.435Z,10.27
2023-02-04T15:46:26.593Z,8.50
2023-02-04T15:48:52.778Z,9.05
2023-02-04T15:51:18.828Z,10.30
2023-02-04T15:53:44.896Z,7.57
2023-02-04T15:56:10.966Z,9.95
2023-02-04T15:58:37.464Z,8.18
2023-02-04T16:01:03.712Z,8.57
2023-02-04T16:03:29.966Z,9.00
2023-02-04T16:05:56.136Z,8.27
2023-02-04T16:08:22.349Z,6.57
2023-02-04T16:10:48.546Z,8.40
2023-02-04T16:13:14.644Z,6.60
2023-02-04T16:15:40.743Z,7.28
2023-02-04T16:18:07.012Z,8.32
2023-02-04T16:20:33.108Z,5.63
2023-02-04T16:22:59.191Z,6.93
2023-02-04T16:25:25.281Z,7.88
2023-02-04T16:27:51.413Z,7.85
2023-02-04T16:30:17.582Z,6.78
2023-02-04T16:32:43.623Z,7.63
2023-02-04T16:35:09.899Z,5.60
2023-02-04T16:37:37.018Z,5.50
2023-02-04T16:40:04.701Z,5.57
2023-02-04T16:42:30.833Z,5.55
2023-02-04T16:44:57.209Z,5.15
2023-02-04T16:47:23.340Z,5.40
2023-02-04T16:49:50.652Z,4.22
2023-02-04T16:52:17.094Z,3.80
2023-02-04T16:54:43.516Z,5.18
2023-02-04T16:57:11.485Z,5.25
2023-02-04T16:59:37.700Z,3.45
2023-02-04T17:02:03.969Z,5.03
2023-02-04T17:04:31.685Z,4.28
2023-02-04T17:06:59.764Z,3.38
2023-02-04T17:09:26.440Z,2.72
2023-02-04T17:11:52.601Z,3.13
2023-02-04T17:14:20.441Z,4.18
2023-02-04T17:16:47.588Z,2.80
2023-02-04T17:19:16.939Z,3.63
2023-02-04T17:21:44.293Z,4.05
2023-02-04T17:24:11.286Z,3.35
2023-02-04T17:26:39.116Z,2.58
2023-02-04T17:29:13.919Z,3.10
2023-02-04T17:31:42.527Z,3.20
2023-02-04T17:34:09.568Z,3.83
2023-02-04T17:36:35.864Z,2.72
2023-02-04T17:39:02.265Z,2.60
2023-02-04T17:41:28.428Z,2.42
2023-02-04T17:43:54.490Z,3.05
2023-02-04T17:46:20.613Z,2.28
2023-02-04T17:48:46.823Z,2.40
2023-02-04T17:51:13.215Z,3.03
2023-02-04T17:53:42.470Z,1.95
2023-02-04T17:56:11.545Z,3.40
2023-02-04T17:58:39.740Z,1.88
2023-02-04T18:01:14.794Z,2.42
2023-02-04T18:03:42.032Z,2.13
2023-02-04T18:06:20.700Z,1.67
2023-02-04T18:08:47.717Z,2.50
2023-02-04T18:11:22.866Z,3.17
2023-02-04T18:13:49.598Z,2.03
2023-02-04T18:16:36.252Z,1.65
2023-02-04T18:19:26.935Z,2.25
2023-02-04T18:21:54.155Z,1.35
2023-02-04T18:24:32.541Z,1.85
2023-02-04T18:27:13.596Z,1.67
2023-02-04T18:29:42.392Z,1.38
2023-02-04T18:32:08.392Z,1.10
2023-02-04T18:34:37.487Z,1.17
2023-02-04T18:37:45.200Z,1.35
2023-02-04T18:40:41.636Z,1.10
2023-02-04T18:43:28.782Z,1.00
2023-02-04T18:46:00.193Z,2.40
2023-02-04T18:48:26.273Z,1.27
2023-02-04T18:50:53.643Z,1.13
2023-02-04T18:53:27.816Z,1.17
2023-02-04T18:55:58.994Z,1.00
2023-02-04T18:58:34.993Z,1.00
2023-02-04T19:01:18.537Z,1.52
2023-02-04T19:03:51.671Z,1.27
2023-02-04T19:06:28.305Z,1.20
2023-02-04T19:09:07.448Z,0.82
2023-02-04T19:11:39.927Z,1.00
2023-02-04T19:14:36.931Z,1.17
2023-02-04T19:17:26.001Z,1.00
2023-02-04T19:19:58.804Z,1.05
2023-02-04T19:22:40.200Z,1.33
2023-02-04T19:25:36.963Z,0.93
2023-02-04T19:28:13.228Z,0.80
2023-02-04T19:30:44.624Z,1.00
2023-02-04T19:33:17.291Z,0.70
2023-02-04T19:35:45.551Z,0.65
2023-02-04T19:38:36.755Z,0.50
2023-02-04T19:41:18.250Z,0.65
2023-02-04T19:43:44.303Z,0.70
2023-02-04T19:46:23.411Z,0.90
2023-02-04T19:48:50.242Z,0.70
2023-02-04T19:51:23.043Z,1.63
2023-02-04T19:53:53.232Z,1.10
2023-02-04T19:56:38.193Z,1.08
2023-02-04T19:59:24.417Z,0.80
2023-02-04T20:02:20.903Z,0.88
2023-02-04T20:04:52.803Z,0.80
2023-02-04T20:07:27.224Z,0.75
2023-02-04T20:10:24.045Z,1.08
2023-02-04T20:12:59.980Z,0.68
2023-02-04T20:15:26.057Z,1.33
2023-02-04T20:17:53.006Z,1.10
2023-02-04T20:20:30.391Z,1.38
2023-02-04T20:22:57.635Z,0.77
2023-02-04T20:25:37.861Z,0.90
2023-02-04T20:28:39.156Z,0.90
2023-02-04T20:31:25.543Z,0.80
2023-02-04T20:33:55.409Z,1.50
2023-02-04T20:36:42.534Z,1.40
2023-02-04T20:39:08.572Z,1.15
2023-02-04T20:41:36.913Z,1.48
2023-02-04T20:44:19.754Z,1.55
2023-02-04T20:46:45.819Z,0.80
2023-02-04T20:49:25.364Z,1.38
2023-02-04T20:51:58.540Z,1.25
2023-02-04T20:54:28.824Z,0.85
2023-02-04T20:57:06.734Z,1.10
2023-02-04T20:59:33.233Z,1.63
2023-02-04T21:02:01.344Z,1.05
2023-02-04T21:04:51.259Z,1.15
2023-02-04T21:07:19.813Z,1.00
2023-02-04T21:09:47.481Z,2.55
2023-02-04T21:12:13.830Z,2.05
2023-02-04T21:14:40.040Z,1.58
2023-02-04T21:17:06.333Z,2.05
2023-02-04T21:19:34.496Z,1.48
2023-02-04T21:22:01.033Z,2.35
2023-02-04T21:24:30.766Z,1.08
2023-02-04T21:26:57.147Z,1.08
2023-02-04T21:29:23.370Z,1.50
2023-02-04T21:31:49.610Z,2.35
2023-02-04T21:34:15.967Z,1.15
2023-02-04T21:36:42.027Z,1.00
2023-02-04T21:39:08.194Z,1.30
2023-02-04T21:41:34.235Z,1.73
2023-02-04T21:44:00.307Z,1.92
2023-02-04T21:46:26.733Z,1.25
2023-02-04T21:48:52.804Z,1.88
2023-02-04T21:51:18.854Z,1.73
2023-02-04T21:53:44.951Z,1.85
2023-02-04T21:56:11.144Z,1.02
2023-02-04T21:58:38.007Z,1.90
2023-02-04T22:01:04.239Z,1.20
2023-02-04T22:03:30.494Z,1.92
2023-02-04T22:05:56.634Z,1.83
2023-02-04T22:08:22.734Z,1.80
2023-02-04T22:10:48.793Z,1.50
2023-02-04T22:13:33.563Z,1.13
2023-02-04T22:15:59.752Z,2.60
2023-02-04T22:18:25.916Z,1.77
2023-02-04T22:20:51.977Z,1.58
2023-02-04T22:23:18.014Z,1.02
2023-02-04T22:25:44.063Z,1.80
2023-02-04T22:28:10.196Z,2.58
2023-02-04T22:30:37.126Z,2.50
2023-02-04T22:33:03.453Z,1.70
2023-02-04T22:35:32.678Z,1.38
2023-02-04T22:38:01.850Z,1.58
2023-02-04T22:40:28.171Z,1.30
2023-02-04T22:42:54.217Z,2.47
2023-02-04T22:45:20.314Z,1.80
2023-02-04T22:47:46.361Z,2.50
2023-02-04T22:50:12.592Z,1.60
2023-02-04T22:52:38.645Z,1.40
2023-02-04T22:55:05.156Z,1.80
2023-02-04T22:57:31.268Z,2.05
2023-02-04T22:59:57.337Z,1.83
2023-02-04T23:02:23.400Z,2.15
2023-02-04T23:04:49.524Z,1.92
2023-02-04T23:07:15.589Z,2.40
2023-02-04T23:09:41.680Z,2.10
2023-02-04T23:12:14.354Z,2.00
2023-02-04T23:14:45.982Z,1.70
2023-02-04T23:17:13.318Z,2.00
2023-02-04T23:19:40.142Z,2.95
2023-02-04T23:22:07.413Z,1.73
2023-02-04T23:24:34.418Z,2.38
2023-02-04T23:27:01.980Z,1.65
2023-02-04T23:29:28.606Z,2.20
2023-02-04T23:31:55.509Z,2.40
2023-02-04T23:34:21.598Z,2.05
2023-02-04T23:36:50.337Z,1.67
2023-02-04T23:39:18.173Z,3.08
2023-02-04T23:41:44.418Z,2.42
2023-02-04T23:44:10.464Z,3.50
2023-02-04T23:46:36.525Z,2.55
2023-02-04T23:49:02.626Z,2.08
2023-02-04T23:51:28.668Z,2.00
2023-02-04T23:53:54.727Z,3.25
2023-02-04T23:56:22.124Z,2.00
2023-02-04T23:58:48.239Z,1.52
